Terminal Aerodrome Forecast
Issued by NWS Hastings, NE

Home | Current Version | Previous Version | Text Only | Print | Product List | Glossary On
Versions: 1 2 3 4 5 6 7 8 9 10 11 12 13 14 15 16 17 18 19 20 21 22 23 24 25 26 27 28 29 30 31 32 33 34 35 36 37 38
000
FTUS45 KGID 181725
TAFEAR
TAF
KEAR 181725Z 1818/1918 05011KT 2SM -FZDZ OVC004
     FM182100 02015KT P6SM -FZDZSN OVC008
     FM182300 02016G24KT P6SM OVC009
     FM190500 35015G26KT P6SM BKN040
     FM191100 35014KT P6SM SCT050=

USA.gov is the U.S. government's official web portal to all federal, state and local government web resources and services.